Conneaut Harbor, Ohio
Current Conditions -  °F | °C
As of 12:53 PM on Friday 24 Oct 2014 (Local Time) from KHZY Reporting Station
Broken Clouds Broken Clouds  
Wind Chill: 56°   Ceiling: 2500
Heat Index: 56°   Visibility: 10mi
Dew Point: 44°   Wind: 12mph
Humidity: 64%   Direction: 290°WNW
Pressure: 30.07"   Gusts: NA
Location:  41.8949°N, 80.5816°W
Report Text: KHZY 241653Z AUTO 29010KT 10SM BKN025 13/07 A3007 RMK AO2 SLP184 T01330067
Loading
Personal Weather Stations






























Interactive Weather Map
Tropical Storm Tracking
New forecast layout! Learn more

10-Day Weather Forecast

Advertisements
Track Severe Weather on mobile